sensor_id;sensor_type;location;lat;lon;timestamp;temperature;humidity
24176;DHT22;12324;48.146;11.502;2022-12-28T00:02:12;1.60;99.90
24176;DHT22;12324;48.146;11.502;2022-12-28T00:04:38;1.60;99.90
24176;DHT22;12324;48.146;11.502;2022-12-28T00:07:05;1.50;99.90
24176;DHT22;12324;48.146;11.502;2022-12-28T00:09:32;1.50;99.90
24176;DHT22;12324;48.146;11.502;2022-12-28T00:11:58;1.50;99.90
24176;DHT22;12324;48.146;11.502;2022-12-28T00:14:25;1.60;99.90
24176;DHT22;12324;48.146;11.502;2022-12-28T00:16:51;1.60;99.90
24176;DHT22;12324;48.146;11.502;2022-12-28T00:19:18;1.50;99.90
24176;DHT22;12324;48.146;11.502;2022-12-28T00:21:45;1.50;99.90
24176;DHT22;12324;48.146;11.502;2022-12-28T00:24:21;1.50;99.90
24176;DHT22;12324;48.146;11.502;2022-12-28T00:26:48;1.40;99.90
24176;DHT22;12324;48.146;11.502;2022-12-28T00:29:16;1.50;99.90
24176;DHT22;12324;48.146;11.502;2022-12-28T00:31:43;1.40;99.90
24176;DHT22;12324;48.146;11.502;2022-12-28T00:34:11;1.50;99.90
24176;DHT22;12324;48.146;11.502;2022-12-28T00:36:38;1.40;99.90
24176;DHT22;12324;48.146;11.502;2022-12-28T00:39:25;1.40;99.90
24176;DHT22;12324;48.146;11.502;2022-12-28T00:41:51;1.40;99.90
24176;DHT22;12324;48.146;11.502;2022-12-28T00:44:18;1.40;99.90
24176;DHT22;12324;48.146;11.502;2022-12-28T00:46:45;1.40;99.90
24176;DHT22;12324;48.146;11.502;2022-12-28T00:49:11;1.40;99.90
24176;DHT22;12324;48.146;11.502;2022-12-28T00:51:38;1.50;99.90
24176;DHT22;12324;48.146;11.502;2022-12-28T00:54:05;1.50;99.90
24176;DHT22;12324;48.146;11.502;2022-12-28T00:56:31;1.50;99.90
24176;DHT22;12324;48.146;11.502;2022-12-28T00:58:58;1.50;99.90
24176;DHT22;12324;48.146;11.502;2022-12-28T01:01:26;1.50;99.90
24176;DHT22;12324;48.146;11.502;2022-12-28T01:03:55;1.40;99.90
24176;DHT22;12324;48.146;11.502;2022-12-28T01:06:22;1.50;99.90
24176;DHT22;12324;48.146;11.502;2022-12-28T01:08:49;1.40;99.90
24176;DHT22;12324;48.146;11.502;2022-12-28T01:11:20;1.40;99.90
24176;DHT22;12324;48.146;11.502;2022-12-28T01:13:48;1.40;99.90
24176;DHT22;12324;48.146;11.502;2022-12-28T01:16:17;1.40;99.90
24176;DHT22;12324;48.146;11.502;2022-12-28T01:18:45;1.40;99.90
24176;DHT22;12324;48.146;11.502;2022-12-28T01:21:17;1.40;99.90
24176;DHT22;12324;48.146;11.502;2022-12-28T01:23:45;1.40;99.90
24176;DHT22;12324;48.146;11.502;2022-12-28T01:26:12;1.50;99.90
24176;DHT22;12324;48.146;11.502;2022-12-28T01:28:39;1.50;99.90
24176;DHT22;12324;48.146;11.502;2022-12-28T01:31:09;1.50;99.90
24176;DHT22;12324;48.146;11.502;2022-12-28T01:33:36;1.50;99.90
24176;DHT22;12324;48.146;11.502;2022-12-28T01:36:07;1.50;99.90
24176;DHT22;12324;48.146;11.502;2022-12-28T01:38:34;1.50;99.90
24176;DHT22;12324;48.146;11.502;2022-12-28T01:41:02;1.40;99.90
24176;DHT22;12324;48.146;11.502;2022-12-28T01:43:43;1.40;99.90
24176;DHT22;12324;48.146;11.502;2022-12-28T01:46:41;1.40;99.90
24176;DHT22;12324;48.146;11.502;2022-12-28T01:49:21;1.40;99.90
24176;DHT22;12324;48.146;11.502;2022-12-28T01:54:29;1.40;99.90
24176;DHT22;12324;48.146;11.502;2022-12-28T01:56:56;1.50;99.90
24176;DHT22;12324;48.146;11.502;2022-12-28T01:59:25;1.40;99.90
24176;DHT22;12324;48.146;11.502;2022-12-28T02:04:21;1.50;99.90
24176;DHT22;12324;48.146;11.502;2022-12-28T02:06:48;1.50;99.90
24176;DHT22;12324;48.146;11.502;2022-12-28T02:09:25;1.50;99.90
24176;DHT22;12324;48.146;11.502;2022-12-28T02:11:53;1.50;99.90
24176;DHT22;12324;48.146;11.502;2022-12-28T02:14:20;1.60;99.90
24176;DHT22;12324;48.146;11.502;2022-12-28T02:16:47;1.50;99.90
24176;DHT22;12324;48.146;11.502;2022-12-28T02:19:19;1.50;99.90
24176;DHT22;12324;48.146;11.502;2022-12-28T02:30:23;1.50;99.90
24176;DHT22;12324;48.146;11.502;2022-12-28T02:32:54;1.50;99.90
24176;DHT22;12324;48.146;11.502;2022-12-28T02:35:47;1.50;99.90
24176;DHT22;12324;48.146;11.502;2022-12-28T02:38:22;1.60;99.90
24176;DHT22;12324;48.146;11.502;2022-12-28T02:41:14;1.60;99.90
24176;DHT22;12324;48.146;11.502;2022-12-28T02:43:41;1.70;99.90
24176;DHT22;12324;48.146;11.502;2022-12-28T02:46:20;1.70;99.90
24176;DHT22;12324;48.146;11.502;2022-12-28T02:49:23;1.70;99.90
24176;DHT22;12324;48.146;11.502;2022-12-28T02:52:44;1.70;99.90
24176;DHT22;12324;48.146;11.502;2022-12-28T02:55:25;1.70;99.90
24176;DHT22;12324;48.146;11.502;2022-12-28T03:09:37;1.70;99.90
24176;DHT22;12324;48.146;11.502;2022-12-28T03:12:24;1.70;99.90
24176;DHT22;12324;48.146;11.502;2022-12-28T03:15:00;1.80;99.90
24176;DHT22;12324;48.146;11.502;2022-12-28T03:17:30;1.80;99.90
24176;DHT22;12324;48.146;11.502;2022-12-28T03:20:23;1.70;99.90
24176;DHT22;12324;48.146;11.502;2022-12-28T03:23:13;1.70;99.90
24176;DHT22;12324;48.146;11.502;2022-12-28T03:26:02;1.70;99.90
24176;DHT22;12324;48.146;11.502;2022-12-28T03:28:49;1.70;99.90
24176;DHT22;12324;48.146;11.502;2022-12-28T03:31:35;1.70;99.90
24176;DHT22;12324;48.146;11.502;2022-12-28T03:34:02;1.80;99.90
24176;DHT22;12324;48.146;11.502;2022-12-28T03:39:03;1.80;99.90
24176;DHT22;12324;48.146;11.502;2022-12-28T03:41:37;1.80;99.90
24176;DHT22;12324;48.146;11.502;2022-12-28T03:44:23;1.80;99.90
24176;DHT22;12324;48.146;11.502;2022-12-28T03:46:57;1.80;99.90
24176;DHT22;12324;48.146;11.502;2022-12-28T03:49:26;1.80;99.90
24176;DHT22;12324;48.146;11.502;2022-12-28T03:51:54;1.80;99.90
24176;DHT22;12324;48.146;11.502;2022-12-28T03:54:21;1.80;99.90
24176;DHT22;12324;48.146;11.502;2022-12-28T03:56:49;1.90;99.90
24176;DHT22;12324;48.146;11.502;2022-12-28T03:59:17;1.90;99.90
24176;DHT22;12324;48.146;11.502;2022-12-28T04:01:44;1.90;99.90
24176;DHT22;12324;48.146;11.502;2022-12-28T04:04:11;1.90;99.90
24176;DHT22;12324;48.146;11.502;2022-12-28T04:06:38;1.90;99.90
24176;DHT22;12324;48.146;11.502;2022-12-28T04:09:05;1.90;99.90
24176;DHT22;12324;48.146;11.502;2022-12-28T04:11:32;1.90;99.90
24176;DHT22;12324;48.146;11.502;2022-12-28T04:13:59;1.90;99.90
24176;DHT22;12324;48.146;11.502;2022-12-28T04:16:32;2.00;99.90
24176;DHT22;12324;48.146;11.502;2022-12-28T04:18:58;2.00;99.90
24176;DHT22;12324;48.146;11.502;2022-12-28T04:21:25;1.90;99.90
24176;DHT22;12324;48.146;11.502;2022-12-28T04:23:52;2.00;99.90
24176;DHT22;12324;48.146;11.502;2022-12-28T04:26:18;2.00;99.90
24176;DHT22;12324;48.146;11.502;2022-12-28T04:28:45;2.00;99.90
24176;DHT22;12324;48.146;11.502;2022-12-28T04:31:13;2.00;99.90
24176;DHT22;12324;48.146;11.502;2022-12-28T04:33:40;2.00;99.90
24176;DHT22;12324;48.146;11.502;2022-12-28T04:36:16;2.00;99.90
24176;DHT22;12324;48.146;11.502;2022-12-28T04:38:43;2.00;99.90
24176;DHT22;12324;48.146;11.502;2022-12-28T04:41:10;2.00;99.90
24176;DHT22;12324;48.146;11.502;2022-12-28T04:43:38;2.00;99.90
24176;DHT22;12324;48.146;11.502;2022-12-28T04:46:14;2.00;99.90
24176;DHT22;12324;48.146;11.502;2022-12-28T04:48:41;2.00;99.90
24176;DHT22;12324;48.146;11.502;2022-12-28T04:51:20;2.00;99.90
24176;DHT22;12324;48.146;11.502;2022-12-28T04:53:47;2.00;99.90
24176;DHT22;12324;48.146;11.502;2022-12-28T04:56:14;2.00;99.90
24176;DHT22;12324;48.146;11.502;2022-12-28T04:58:42;2.00;99.90
24176;DHT22;12324;48.146;11.502;2022-12-28T05:01:16;2.00;99.90
24176;DHT22;12324;48.146;11.502;2022-12-28T05:03:45;2.00;99.90
24176;DHT22;12324;48.146;11.502;2022-12-28T05:06:22;2.10;99.90
24176;DHT22;12324;48.146;11.502;2022-12-28T05:08:49;2.10;99.90
24176;DHT22;12324;48.146;11.502;2022-12-28T05:11:21;2.10;99.90
24176;DHT22;12324;48.146;11.502;2022-12-28T05:13:49;2.10;99.90
24176;DHT22;12324;48.146;11.502;2022-12-28T05:16:17;2.10;99.90
24176;DHT22;12324;48.146;11.502;2022-12-28T05:18:45;2.20;99.90
24176;DHT22;12324;48.146;11.502;2022-12-28T05:21:18;2.20;99.90
24176;DHT22;12324;48.146;11.502;2022-12-28T05:23:45;2.30;99.90
24176;DHT22;12324;48.146;11.502;2022-12-28T05:26:15;2.30;99.90
24176;DHT22;12324;48.146;11.502;2022-12-28T05:28:42;2.30;99.90
24176;DHT22;12324;48.146;11.502;2022-12-28T05:31:11;2.30;99.90
24176;DHT22;12324;48.146;11.502;2022-12-28T05:33:39;2.40;99.90
24176;DHT22;12324;48.146;11.502;2022-12-28T05:36:11;2.40;99.90
24176;DHT22;12324;48.146;11.502;2022-12-28T05:38:38;2.50;99.90
24176;DHT22;12324;48.146;11.502;2022-12-28T05:41:07;2.50;99.90
24176;DHT22;12324;48.146;11.502;2022-12-28T05:43:34;2.60;99.90
24176;DHT22;12324;48.146;11.502;2022-12-28T05:48:33;2.60;99.90
24176;DHT22;12324;48.146;11.502;2022-12-28T05:51:06;2.60;99.90
24176;DHT22;12324;48.146;11.502;2022-12-28T05:53:33;2.60;99.90
24176;DHT22;12324;48.146;11.502;2022-12-28T05:56:09;2.60;99.90
24176;DHT22;12324;48.146;11.502;2022-12-28T05:58:43;2.60;99.90
24176;DHT22;12324;48.146;11.502;2022-12-28T06:01:14;2.70;99.90
24176;DHT22;12324;48.146;11.502;2022-12-28T06:03:41;2.60;99.90
24176;DHT22;12324;48.146;11.502;2022-12-28T06:06:10;2.60;99.90
24176;DHT22;12324;48.146;11.502;2022-12-28T06:08:40;2.70;99.90
24176;DHT22;12324;48.146;11.502;2022-12-28T06:11:10;2.70;99.90
24176;DHT22;12324;48.146;11.502;2022-12-28T06:13:37;2.70;99.90
24176;DHT22;12324;48.146;11.502;2022-12-28T06:18:33;2.70;99.90
24176;DHT22;12324;48.146;11.502;2022-12-28T06:21:04;2.70;99.90
24176;DHT22;12324;48.146;11.502;2022-12-28T06:23:31;2.70;99.90
24176;DHT22;12324;48.146;11.502;2022-12-28T06:26:00;2.70;99.90
24176;DHT22;12324;48.146;11.502;2022-12-28T06:28:27;2.70;99.90
24176;DHT22;12324;48.146;11.502;2022-12-28T06:31:19;2.70;99.90
24176;DHT22;12324;48.146;11.502;2022-12-28T06:33:47;2.70;99.90
24176;DHT22;12324;48.146;11.502;2022-12-28T06:36:26;2.70;99.90
24176;DHT22;12324;48.146;11.502;2022-12-28T06:38:55;2.70;99.90
24176;DHT22;12324;48.146;11.502;2022-12-28T06:41:22;2.70;99.90
24176;DHT22;12324;48.146;11.502;2022-12-28T06:43:49;2.70;99.90
24176;DHT22;12324;48.146;11.502;2022-12-28T06:46:17;2.70;99.90
24176;DHT22;12324;48.146;11.502;2022-12-28T06:48:44;2.70;99.90
24176;DHT22;12324;48.146;11.502;2022-12-28T06:51:20;2.70;99.90
24176;DHT22;12324;48.146;11.502;2022-12-28T06:53:48;2.70;99.90
24176;DHT22;12324;48.146;11.502;2022-12-28T06:56:17;2.70;99.90
24176;DHT22;12324;48.146;11.502;2022-12-28T06:58:45;2.80;99.90
24176;DHT22;12324;48.146;11.502;2022-12-28T07:01:33;2.80;99.90
24176;DHT22;12324;48.146;11.502;2022-12-28T07:04:02;2.80;99.90
24176;DHT22;12324;48.146;11.502;2022-12-28T07:06:32;2.80;99.90
24176;DHT22;12324;48.146;11.502;2022-12-28T07:09:01;2.80;99.90
24176;DHT22;12324;48.146;11.502;2022-12-28T07:11:28;2.80;99.90
24176;DHT22;12324;48.146;11.502;2022-12-28T07:13:55;2.80;99.90
24176;DHT22;12324;48.146;11.502;2022-12-28T07:16:24;2.80;99.90
24176;DHT22;12324;48.146;11.502;2022-12-28T07:23:48;2.90;99.90
24176;DHT22;12324;48.146;11.502;2022-12-28T07:26:18;3.00;99.90
24176;DHT22;12324;48.146;11.502;2022-12-28T07:28:50;3.10;99.90
24176;DHT22;12324;48.146;11.502;2022-12-28T07:31:20;3.20;99.90
24176;DHT22;12324;48.146;11.502;2022-12-28T07:33:47;3.20;99.90
24176;DHT22;12324;48.146;11.502;2022-12-28T07:38:43;3.20;99.90
24176;DHT22;12324;48.146;11.502;2022-12-28T07:41:12;3.30;99.90
24176;DHT22;12324;48.146;11.502;2022-12-28T07:43:39;3.20;99.90
24176;DHT22;12324;48.146;11.502;2022-12-28T07:46:11;3.30;99.90
24176;DHT22;12324;48.146;11.502;2022-12-28T07:48:39;3.30;99.90
24176;DHT22;12324;48.146;11.502;2022-12-28T07:51:27;3.30;99.90
24176;DHT22;12324;48.146;11.502;2022-12-28T07:53:55;3.30;99.90
24176;DHT22;12324;48.146;11.502;2022-12-28T07:56:24;3.40;99.90
24176;DHT22;12324;48.146;11.502;2022-12-28T07:58:53;3.40;99.90
24176;DHT22;12324;48.146;11.502;2022-12-28T08:01:22;3.40;99.90
24176;DHT22;12324;48.146;11.502;2022-12-28T08:03:52;3.40;99.90
24176;DHT22;12324;48.146;11.502;2022-12-28T08:06:21;3.50;99.90
24176;DHT22;12324;48.146;11.502;2022-12-28T08:11:19;3.60;99.90
24176;DHT22;12324;48.146;11.502;2022-12-28T08:13:49;3.70;99.90
24176;DHT22;12324;48.146;11.502;2022-12-28T08:16:17;3.70;99.90
24176;DHT22;12324;48.146;11.502;2022-12-28T08:18:45;3.70;99.90
24176;DHT22;12324;48.146;11.502;2022-12-28T08:21:24;3.70;99.90
24176;DHT22;12324;48.146;11.502;2022-12-28T08:23:52;3.80;99.90
24176;DHT22;12324;48.146;11.502;2022-12-28T08:26:39;3.80;99.90
24176;DHT22;12324;48.146;11.502;2022-12-28T08:29:15;3.90;99.90
24176;DHT22;12324;48.146;11.502;2022-12-28T08:31:43;3.90;99.90
24176;DHT22;12324;48.146;11.502;2022-12-28T08:34:13;4.00;99.90
24176;DHT22;12324;48.146;11.502;2022-12-28T08:36:41;4.00;99.90
24176;DHT22;12324;48.146;11.502;2022-12-28T08:39:08;4.10;99.90
24176;DHT22;12324;48.146;11.502;2022-12-28T08:41:35;4.10;99.90
24176;DHT22;12324;48.146;11.502;2022-12-28T08:44:01;4.20;99.90
24176;DHT22;12324;48.146;11.502;2022-12-28T08:46:31;4.20;99.90
24176;DHT22;12324;48.146;11.502;2022-12-28T08:48:59;4.20;99.90
24176;DHT22;12324;48.146;11.502;2022-12-28T08:51:30;4.20;99.90
24176;DHT22;12324;48.146;11.502;2022-12-28T08:53:58;4.30;99.90
24176;DHT22;12324;48.146;11.502;2022-12-28T08:56:27;4.30;99.90
24176;DHT22;12324;48.146;11.502;2022-12-28T08:58:55;4.40;99.90
24176;DHT22;12324;48.146;11.502;2022-12-28T09:03:51;4.50;99.90
24176;DHT22;12324;48.146;11.502;2022-12-28T09:06:21;4.60;99.90
24176;DHT22;12324;48.146;11.502;2022-12-28T09:08:51;4.60;99.90
24176;DHT22;12324;48.146;11.502;2022-12-28T09:11:34;4.70;99.90
24176;DHT22;12324;48.146;11.502;2022-12-28T10:09:20;4.70;99.90
24176;DHT22;12324;48.146;11.502;2022-12-28T10:11:47;6.30;99.90
24176;DHT22;12324;48.146;11.502;2022-12-28T10:42:26;6.40;99.90
24176;DHT22;12324;48.146;11.502;2022-12-28T10:45:04;7.20;99.90
24176;DHT22;12324;48.146;11.502;2022-12-28T10:53:04;7.20;99.90
24176;DHT22;12324;48.146;11.502;2022-12-28T10:55:32;7.20;99.90
24176;DHT22;12324;48.146;11.502;2022-12-28T10:58:20;7.20;99.90
24176;DHT22;12324;48.146;11.502;2022-12-28T11:04:06;7.30;99.90
24176;DHT22;12324;48.146;11.502;2022-12-28T11:06:35;7.30;99.90
24176;DHT22;12324;48.146;11.502;2022-12-28T11:11:42;7.30;99.90
24176;DHT22;12324;48.146;11.502;2022-12-28T11:55:03;7.50;99.90
24176;DHT22;12324;48.146;11.502;2022-12-28T12:02:56;8.30;99.90
24176;DHT22;12324;48.146;11.502;2022-12-28T12:45:30;13.00;99.90
24176;DHT22;12324;48.146;11.502;2022-12-28T12:54:33;13.80;99.90
24176;DHT22;12324;48.146;11.502;2022-12-28T12:57:17;14.60;97.40
24176;DHT22;12324;48.146;11.502;2022-12-28T13:02:49;15.50;88.70
24176;DHT22;12324;48.146;11.502;2022-12-28T13:05:21;15.80;82.10
24176;DHT22;12324;48.146;11.502;2022-12-28T13:07:49;15.60;81.00
24176;DHT22;12324;48.146;11.502;2022-12-28T13:10:20;14.30;88.50
24176;DHT22;12324;48.146;11.502;2022-12-28T13:12:51;14.50;91.00
24176;DHT22;12324;48.146;11.502;2022-12-28T13:15:19;14.00;91.20
24176;DHT22;12324;48.146;11.502;2022-12-28T13:18:06;13.60;94.40
24176;DHT22;12324;48.146;11.502;2022-12-28T13:21:02;12.90;98.10
24176;DHT22;12324;48.146;11.502;2022-12-28T13:23:43;12.20;99.90
24176;DHT22;12324;48.146;11.502;2022-12-28T13:26:11;11.80;99.90
24176;DHT22;12324;48.146;11.502;2022-12-28T13:31:18;11.60;99.90
24176;DHT22;12324;48.146;11.502;2022-12-28T13:33:57;11.40;99.90
24176;DHT22;12324;48.146;11.502;2022-12-28T13:36:24;11.10;99.90
24176;DHT22;12324;48.146;11.502;2022-12-28T13:39:12;11.00;99.90
24176;DHT22;12324;48.146;11.502;2022-12-28T13:41:47;10.60;99.90
24176;DHT22;12324;48.146;11.502;2022-12-28T13:44:21;10.40;99.90
24176;DHT22;12324;48.146;11.502;2022-12-28T13:46:56;10.50;99.90
24176;DHT22;12324;48.146;11.502;2022-12-28T13:49:24;10.30;99.90
24176;DHT22;12324;48.146;11.502;2022-12-28T13:51:52;10.20;99.90
24176;DHT22;12324;48.146;11.502;2022-12-28T13:54:20;10.10;99.90
24176;DHT22;12324;48.146;11.502;2022-12-28T13:56:48;10.10;99.90
24176;DHT22;12324;48.146;11.502;2022-12-28T13:59:16;9.90;99.90
24176;DHT22;12324;48.146;11.502;2022-12-28T14:01:47;9.80;99.90
24176;DHT22;12324;48.146;11.502;2022-12-28T14:04:19;9.60;99.90
24176;DHT22;12324;48.146;11.502;2022-12-28T14:07:14;9.50;99.90
24176;DHT22;12324;48.146;11.502;2022-12-28T14:09:43;9.50;99.90
24176;DHT22;12324;48.146;11.502;2022-12-28T14:12:11;9.50;99.90
24176;DHT22;12324;48.146;11.502;2022-12-28T14:14:39;9.50;99.90
24176;DHT22;12324;48.146;11.502;2022-12-28T14:17:07;9.40;99.90
24176;DHT22;12324;48.146;11.502;2022-12-28T14:19:35;9.50;99.90
24176;DHT22;12324;48.146;11.502;2022-12-28T14:22:02;9.30;99.90
24176;DHT22;12324;48.146;11.502;2022-12-28T14:24:32;9.30;99.90
24176;DHT22;12324;48.146;11.502;2022-12-28T14:26:58;9.30;99.90
24176;DHT22;12324;48.146;11.502;2022-12-28T14:29:34;9.20;99.90
24176;DHT22;12324;48.146;11.502;2022-12-28T14:32:04;9.20;99.90
24176;DHT22;12324;48.146;11.502;2022-12-28T14:34:35;9.10;99.90
24176;DHT22;12324;48.146;11.502;2022-12-28T14:37:04;9.10;99.90
24176;DHT22;12324;48.146;11.502;2022-12-28T14:39:42;9.00;99.90
24176;DHT22;12324;48.146;11.502;2022-12-28T14:42:24;8.90;99.90
24176;DHT22;12324;48.146;11.502;2022-12-28T14:44:51;8.90;99.90
24176;DHT22;12324;48.146;11.502;2022-12-28T14:47:38;8.90;99.90
24176;DHT22;12324;48.146;11.502;2022-12-28T14:50:17;8.90;99.90
24176;DHT22;12324;48.146;11.502;2022-12-28T14:52:46;8.90;99.90
24176;DHT22;12324;48.146;11.502;2022-12-28T14:55:21;8.90;99.90
24176;DHT22;12324;48.146;11.502;2022-12-28T14:57:50;8.80;99.90
24176;DHT22;12324;48.146;11.502;2022-12-28T15:02:48;8.80;99.90
24176;DHT22;12324;48.146;11.502;2022-12-28T15:05:41;8.80;99.90
24176;DHT22;12324;48.146;11.502;2022-12-28T15:08:08;8.80;99.90
24176;DHT22;12324;48.146;11.502;2022-12-28T15:10:40;8.70;99.90
24176;DHT22;12324;48.146;11.502;2022-12-28T15:13:07;8.70;99.90
24176;DHT22;12324;48.146;11.502;2022-12-28T15:15:35;8.70;99.90
24176;DHT22;12324;48.146;11.502;2022-12-28T15:18:05;8.70;99.90
24176;DHT22;12324;48.146;11.502;2022-12-28T15:20:36;8.70;99.90
24176;DHT22;12324;48.146;11.502;2022-12-28T15:23:03;8.60;99.90
24176;DHT22;12324;48.146;11.502;2022-12-28T15:25:34;8.60;99.90
24176;DHT22;12324;48.146;11.502;2022-12-28T15:28:01;8.50;99.90
24176;DHT22;12324;48.146;11.502;2022-12-28T15:30:28;8.50;99.90
24176;DHT22;12324;48.146;11.502;2022-12-28T15:32:59;8.40;99.90
24176;DHT22;12324;48.146;11.502;2022-12-28T15:35:26;8.30;99.90
24176;DHT22;12324;48.146;11.502;2022-12-28T15:37:53;8.20;99.90
24176;DHT22;12324;48.146;11.502;2022-12-28T15:40:20;8.10;99.90
24176;DHT22;12324;48.146;11.502;2022-12-28T15:42:47;8.00;99.90
24176;DHT22;12324;48.146;11.502;2022-12-28T15:45:15;7.90;99.90
24176;DHT22;12324;48.146;11.502;2022-12-28T15:47:43;7.80;99.90
24176;DHT22;12324;48.146;11.502;2022-12-28T16:04:54;7.70;99.90
24176;DHT22;12324;48.146;11.502;2022-12-28T16:07:21;7.10;99.90
24176;DHT22;12324;48.146;11.502;2022-12-28T16:09:48;7.10;99.90
24176;DHT22;12324;48.146;11.502;2022-12-28T16:12:14;7.00;99.90
24176;DHT22;12324;48.146;11.502;2022-12-28T16:14:46;6.90;99.90
24176;DHT22;12324;48.146;11.502;2022-12-28T16:17:13;6.90;99.90
24176;DHT22;12324;48.146;11.502;2022-12-28T16:19:40;6.80;99.90
24176;DHT22;12324;48.146;11.502;2022-12-28T16:22:07;6.70;99.90
24176;DHT22;12324;48.146;11.502;2022-12-28T16:24:34;6.60;99.90
24176;DHT22;12324;48.146;11.502;2022-12-28T16:27:02;6.50;99.90
24176;DHT22;12324;48.146;11.502;2022-12-28T16:29:29;6.40;99.90
24176;DHT22;12324;48.146;11.502;2022-12-28T16:31:58;6.30;99.90
24176;DHT22;12324;48.146;11.502;2022-12-28T16:34:25;6.30;99.90
24176;DHT22;12324;48.146;11.502;2022-12-28T16:36:53;6.30;99.90
24176;DHT22;12324;48.146;11.502;2022-12-28T16:39:22;6.30;99.90
24176;DHT22;12324;48.146;11.502;2022-12-28T18:25:20;6.20;99.90
24176;DHT22;12324;48.146;11.502;2022-12-28T18:27:47;5.00;99.90
24176;DHT22;12324;48.146;11.502;2022-12-28T18:30:14;4.90;99.90
24176;DHT22;12324;48.146;11.502;2022-12-28T18:32:40;4.80;99.90
24176;DHT22;12324;48.146;11.502;2022-12-28T19:21:51;4.80;99.90
24176;DHT22;12324;48.146;11.502;2022-12-28T19:24:24;4.30;99.90
24176;DHT22;12324;48.146;11.502;2022-12-28T19:26:50;4.30;99.90
24176;DHT22;12324;48.146;11.502;2022-12-28T19:29:19;4.20;99.90
24176;DHT22;12324;48.146;11.502;2022-12-28T19:36:41;4.20;99.90
24176;DHT22;12324;48.146;11.502;2022-12-28T19:39:07;4.10;99.90
24176;DHT22;12324;48.146;11.502;2022-12-28T19:41:34;4.10;99.90
24176;DHT22;12324;48.146;11.502;2022-12-28T19:44:01;4.10;99.90
24176;DHT22;12324;48.146;11.502;2022-12-28T19:46:27;4.10;99.90
24176;DHT22;12324;48.146;11.502;2022-12-28T19:48:59;4.10;99.90
24176;DHT22;12324;48.146;11.502;2022-12-28T19:51:26;4.00;99.90
24176;DHT22;12324;48.146;11.502;2022-12-28T19:53:58;4.00;99.90
24176;DHT22;12324;48.146;11.502;2022-12-28T19:56:24;4.00;99.90
24176;DHT22;12324;48.146;11.502;2022-12-28T19:58:52;4.00;99.90
24176;DHT22;12324;48.146;11.502;2022-12-28T20:01:26;4.00;99.90
24176;DHT22;12324;48.146;11.502;2022-12-28T20:03:53;4.10;99.90
24176;DHT22;12324;48.146;11.502;2022-12-28T20:06:25;4.00;99.90
24176;DHT22;12324;48.146;11.502;2022-12-28T20:08:57;4.00;99.90
24176;DHT22;12324;48.146;11.502;2022-12-28T20:11:25;4.00;99.90
24176;DHT22;12324;48.146;11.502;2022-12-28T20:13:55;4.00;99.90
24176;DHT22;12324;48.146;11.502;2022-12-28T20:16:24;3.90;99.90
24176;DHT22;12324;48.146;11.502;2022-12-28T20:18:52;3.90;99.90
24176;DHT22;12324;48.146;11.502;2022-12-28T20:21:21;3.90;99.90
24176;DHT22;12324;48.146;11.502;2022-12-28T20:23:49;3.90;99.90
24176;DHT22;12324;48.146;11.502;2022-12-28T20:26:17;3.90;99.90
24176;DHT22;12324;48.146;11.502;2022-12-28T20:28:45;3.90;99.90
24176;DHT22;12324;48.146;11.502;2022-12-28T20:31:14;3.90;99.90
24176;DHT22;12324;48.146;11.502;2022-12-28T20:33:42;3.90;99.90
24176;DHT22;12324;48.146;11.502;2022-12-28T20:36:24;3.90;99.90
24176;DHT22;12324;48.146;11.502;2022-12-28T20:38:52;3.90;99.90
24176;DHT22;12324;48.146;11.502;2022-12-28T20:41:20;3.80;99.90
24176;DHT22;12324;48.146;11.502;2022-12-28T20:44:08;3.80;99.90
24176;DHT22;12324;48.146;11.502;2022-12-28T20:46:35;3.80;99.90
24176;DHT22;12324;48.146;11.502;2022-12-28T20:49:03;3.80;99.90
24176;DHT22;12324;48.146;11.502;2022-12-28T20:51:30;3.80;99.90
24176;DHT22;12324;48.146;11.502;2022-12-28T20:53:56;3.80;99.90
24176;DHT22;12324;48.146;11.502;2022-12-28T20:56:23;3.80;99.90
24176;DHT22;12324;48.146;11.502;2022-12-28T20:58:50;3.70;99.90
24176;DHT22;12324;48.146;11.502;2022-12-28T21:01:16;3.80;99.90
24176;DHT22;12324;48.146;11.502;2022-12-28T21:03:44;3.80;99.90
24176;DHT22;12324;48.146;11.502;2022-12-28T21:06:11;3.80;99.90
24176;DHT22;12324;48.146;11.502;2022-12-28T21:08:38;3.70;99.90
24176;DHT22;12324;48.146;11.502;2022-12-28T21:11:05;3.70;99.90
24176;DHT22;12324;48.146;11.502;2022-12-28T21:13:32;3.70;99.90
24176;DHT22;12324;48.146;11.502;2022-12-28T21:16:05;3.80;99.90
24176;DHT22;12324;48.146;11.502;2022-12-28T21:18:32;3.90;99.90
24176;DHT22;12324;48.146;11.502;2022-12-28T21:20:58;3.90;99.90
24176;DHT22;12324;48.146;11.502;2022-12-28T21:23:27;4.00;99.90
24176;DHT22;12324;48.146;11.502;2022-12-28T21:26:05;4.10;99.90
24176;DHT22;12324;48.146;11.502;2022-12-28T21:28:33;4.10;99.90
24176;DHT22;12324;48.146;11.502;2022-12-28T21:30:59;4.20;99.90
24176;DHT22;12324;48.146;11.502;2022-12-28T21:33:29;4.20;99.90
24176;DHT22;12324;48.146;11.502;2022-12-28T21:36:00;4.20;99.90
24176;DHT22;12324;48.146;11.502;2022-12-28T21:38:28;4.30;99.90
24176;DHT22;12324;48.146;11.502;2022-12-28T21:40:57;4.40;99.90
24176;DHT22;12324;48.146;11.502;2022-12-28T21:43:24;4.50;99.90
24176;DHT22;12324;48.146;11.502;2022-12-28T21:46:14;4.60;99.90
24176;DHT22;12324;48.146;11.502;2022-12-28T21:48:41;4.70;99.90
24176;DHT22;12324;48.146;11.502;2022-12-28T21:51:10;4.70;99.90
24176;DHT22;12324;48.146;11.502;2022-12-28T21:54:14;4.80;99.90
24176;DHT22;12324;48.146;11.502;2022-12-28T21:56:43;4.80;99.90
24176;DHT22;12324;48.146;11.502;2022-12-28T21:59:11;4.70;99.90
24176;DHT22;12324;48.146;11.502;2022-12-28T22:01:39;4.70;99.90
24176;DHT22;12324;48.146;11.502;2022-12-28T22:04:25;4.60;99.90
24176;DHT22;12324;48.146;11.502;2022-12-28T22:07:12;4.70;99.90
24176;DHT22;12324;48.146;11.502;2022-12-28T22:09:39;4.60;99.90
24176;DHT22;12324;48.146;11.502;2022-12-28T22:12:25;4.50;99.90
24176;DHT22;12324;48.146;11.502;2022-12-28T22:15:14;4.50;99.90
24176;DHT22;12324;48.146;11.502;2022-12-28T22:18:04;4.50;99.90
24176;DHT22;12324;48.146;11.502;2022-12-28T22:20:33;4.40;99.90
24176;DHT22;12324;48.146;11.502;2022-12-28T22:23:00;4.30;99.90
24176;DHT22;12324;48.146;11.502;2022-12-28T22:25:29;4.30;99.90
24176;DHT22;12324;48.146;11.502;2022-12-28T22:27:56;4.40;99.90
24176;DHT22;12324;48.146;11.502;2022-12-28T22:30:23;4.30;99.90
24176;DHT22;12324;48.146;11.502;2022-12-28T22:32:50;4.30;99.90
24176;DHT22;12324;48.146;11.502;2022-12-28T22:35:17;4.30;99.90
24176;DHT22;12324;48.146;11.502;2022-12-28T22:37:44;4.40;99.90
24176;DHT22;12324;48.146;11.502;2022-12-28T22:40:11;4.30;99.90
24176;DHT22;12324;48.146;11.502;2022-12-28T22:42:42;4.40;99.90
24176;DHT22;12324;48.146;11.502;2022-12-28T22:45:14;4.30;99.90